sensor_id;sensor_type;location;lat;lon;timestamp;temperature;humidity
5723;DHT22;2886;49.722;8.612;2023-03-14T00:01:39;10.40;99.90
5723;DHT22;2886;49.722;8.612;2023-03-14T00:04:05;10.40;99.90
5723;DHT22;2886;49.722;8.612;2023-03-14T00:06:30;10.40;99.90
5723;DHT22;2886;49.722;8.612;2023-03-14T00:08:56;10.40;99.90
5723;DHT22;2886;49.722;8.612;2023-03-14T00:11:22;10.40;99.90
5723;DHT22;2886;49.722;8.612;2023-03-14T00:13:51;10.40;99.90
5723;DHT22;2886;49.722;8.612;2023-03-14T00:16:18;10.40;99.90
5723;DHT22;2886;49.722;8.612;2023-03-14T00:18:43;10.40;99.90
5723;DHT22;2886;49.722;8.612;2023-03-14T00:21:10;10.40;99.90
5723;DHT22;2886;49.722;8.612;2023-03-14T00:23:38;10.40;99.90
5723;DHT22;2886;49.722;8.612;2023-03-14T00:26:07;10.40;99.90
5723;DHT22;2886;49.722;8.612;2023-03-14T00:28:33;10.50;99.90
5723;DHT22;2886;49.722;8.612;2023-03-14T00:31:02;10.40;99.90
5723;DHT22;2886;49.722;8.612;2023-03-14T00:33:27;10.40;99.90
5723;DHT22;2886;49.722;8.612;2023-03-14T00:35:58;10.40;99.90
5723;DHT22;2886;49.722;8.612;2023-03-14T00:38:24;10.40;99.90
5723;DHT22;2886;49.722;8.612;2023-03-14T00:40:51;10.40;99.90
5723;DHT22;2886;49.722;8.612;2023-03-14T00:43:17;10.40;99.90
5723;DHT22;2886;49.722;8.612;2023-03-14T00:45:42;10.40;99.90
5723;DHT22;2886;49.722;8.612;2023-03-14T00:48:08;10.40;99.90
5723;DHT22;2886;49.722;8.612;2023-03-14T00:50:34;10.30;99.90
5723;DHT22;2886;49.722;8.612;2023-03-14T00:52:59;10.30;99.90
5723;DHT22;2886;49.722;8.612;2023-03-14T00:55:25;10.30;99.90
5723;DHT22;2886;49.722;8.612;2023-03-14T00:57:50;10.30;99.90
5723;DHT22;2886;49.722;8.612;2023-03-14T01:00:16;10.30;99.90
5723;DHT22;2886;49.722;8.612;2023-03-14T01:02:42;10.30;99.90
5723;DHT22;2886;49.722;8.612;2023-03-14T01:05:08;10.30;99.90
5723;DHT22;2886;49.722;8.612;2023-03-14T01:07:36;10.30;99.90
5723;DHT22;2886;49.722;8.612;2023-03-14T01:10:02;10.30;99.90
5723;DHT22;2886;49.722;8.612;2023-03-14T01:12:27;10.30;99.90
5723;DHT22;2886;49.722;8.612;2023-03-14T01:14:53;10.30;99.90
5723;DHT22;2886;49.722;8.612;2023-03-14T01:17:19;10.30;99.90
5723;DHT22;2886;49.722;8.612;2023-03-14T01:19:44;10.30;99.90
5723;DHT22;2886;49.722;8.612;2023-03-14T01:22:10;10.30;99.90
5723;DHT22;2886;49.722;8.612;2023-03-14T01:24:37;10.40;99.90
5723;DHT22;2886;49.722;8.612;2023-03-14T01:27:03;10.40;99.90
5723;DHT22;2886;49.722;8.612;2023-03-14T01:29:29;10.40;99.90
5723;DHT22;2886;49.722;8.612;2023-03-14T01:31:54;10.50;99.90
5723;DHT22;2886;49.722;8.612;2023-03-14T01:34:20;10.50;99.90
5723;DHT22;2886;49.722;8.612;2023-03-14T01:36:46;10.50;99.90
5723;DHT22;2886;49.722;8.612;2023-03-14T01:39:11;10.40;99.90
5723;DHT22;2886;49.722;8.612;2023-03-14T01:41:39;10.50;99.90
5723;DHT22;2886;49.722;8.612;2023-03-14T01:44:05;10.50;99.90
5723;DHT22;2886;49.722;8.612;2023-03-14T01:46:40;10.50;99.90
5723;DHT22;2886;49.722;8.612;2023-03-14T01:51:55;10.50;99.90
5723;DHT22;2886;49.722;8.612;2023-03-14T01:54:40;10.50;99.90
5723;DHT22;2886;49.722;8.612;2023-03-14T01:57:25;10.50;99.90
5723;DHT22;2886;49.722;8.612;2023-03-14T02:00:07;10.50;99.90
5723;DHT22;2886;49.722;8.612;2023-03-14T02:02:38;10.40;99.90
5723;DHT22;2886;49.722;8.612;2023-03-14T02:05:05;10.40;99.90
5723;DHT22;2886;49.722;8.612;2023-03-14T02:07:45;10.50;99.90
5723;DHT22;2886;49.722;8.612;2023-03-14T02:10:12;10.50;99.90
5723;DHT22;2886;49.722;8.612;2023-03-14T02:12:39;10.50;99.90
5723;DHT22;2886;49.722;8.612;2023-03-14T02:15:05;10.60;99.90
5723;DHT22;2886;49.722;8.612;2023-03-14T02:17:30;10.50;99.90
5723;DHT22;2886;49.722;8.612;2023-03-14T02:22:35;10.60;99.90
5723;DHT22;2886;49.722;8.612;2023-03-14T02:27:27;10.60;99.90
5723;DHT22;2886;49.722;8.612;2023-03-14T02:32:24;10.60;99.90
5723;DHT22;2886;49.722;8.612;2023-03-14T02:34:54;10.60;99.90
5723;DHT22;2886;49.722;8.612;2023-03-14T02:37:23;10.60;99.90
5723;DHT22;2886;49.722;8.612;2023-03-14T02:39:50;10.60;99.90
5723;DHT22;2886;49.722;8.612;2023-03-14T02:42:15;10.60;99.90
5723;DHT22;2886;49.722;8.612;2023-03-14T02:44:59;10.60;99.90
5723;DHT22;2886;49.722;8.612;2023-03-14T02:47:28;10.60;99.90
5723;DHT22;2886;49.722;8.612;2023-03-14T02:50:02;10.60;99.90
5723;DHT22;2886;49.722;8.612;2023-03-14T02:52:28;10.60;99.90
5723;DHT22;2886;49.722;8.612;2023-03-14T02:54:54;10.60;99.90
5723;DHT22;2886;49.722;8.612;2023-03-14T02:57:20;10.60;99.90
5723;DHT22;2886;49.722;8.612;2023-03-14T02:59:46;10.60;99.90
5723;DHT22;2886;49.722;8.612;2023-03-14T03:02:11;10.60;99.90
5723;DHT22;2886;49.722;8.612;2023-03-14T03:04:37;10.60;99.90
5723;DHT22;2886;49.722;8.612;2023-03-14T03:07:02;10.60;99.90
5723;DHT22;2886;49.722;8.612;2023-03-14T03:09:28;10.60;99.90
5723;DHT22;2886;49.722;8.612;2023-03-14T03:11:54;10.60;99.90
5723;DHT22;2886;49.722;8.612;2023-03-14T03:14:19;10.60;99.90
5723;DHT22;2886;49.722;8.612;2023-03-14T03:16:45;10.60;99.90
5723;DHT22;2886;49.722;8.612;2023-03-14T03:19:10;10.60;99.90
5723;DHT22;2886;49.722;8.612;2023-03-14T03:21:36;10.50;99.90
5723;DHT22;2886;49.722;8.612;2023-03-14T03:24:02;10.50;99.90
5723;DHT22;2886;49.722;8.612;2023-03-14T03:26:27;10.50;99.90
5723;DHT22;2886;49.722;8.612;2023-03-14T03:28:53;10.40;99.90
5723;DHT22;2886;49.722;8.612;2023-03-14T03:31:19;10.40;99.90
5723;DHT22;2886;49.722;8.612;2023-03-14T03:33:44;10.40;99.90
5723;DHT22;2886;49.722;8.612;2023-03-14T03:36:10;10.40;99.90
5723;DHT22;2886;49.722;8.612;2023-03-14T03:38:36;10.30;99.90
5723;DHT22;2886;49.722;8.612;2023-03-14T03:41:07;10.30;99.90
5723;DHT22;2886;49.722;8.612;2023-03-14T03:43:33;10.20;99.90
5723;DHT22;2886;49.722;8.612;2023-03-14T03:46:06;10.20;99.90
5723;DHT22;2886;49.722;8.612;2023-03-14T03:48:32;10.20;99.90
5723;DHT22;2886;49.722;8.612;2023-03-14T03:50:58;10.10;99.90
5723;DHT22;2886;49.722;8.612;2023-03-14T03:53:24;10.10;99.90
5723;DHT22;2886;49.722;8.612;2023-03-14T03:55:50;10.10;99.90
5723;DHT22;2886;49.722;8.612;2023-03-14T03:58:15;10.10;99.90
5723;DHT22;2886;49.722;8.612;2023-03-14T04:04:03;10.00;99.90
5723;DHT22;2886;49.722;8.612;2023-03-14T04:06:29;10.00;99.90
5723;DHT22;2886;49.722;8.612;2023-03-14T04:08:54;10.00;99.90
5723;DHT22;2886;49.722;8.612;2023-03-14T04:11:20;10.00;99.90
5723;DHT22;2886;49.722;8.612;2023-03-14T04:13:46;10.00;99.90
5723;DHT22;2886;49.722;8.612;2023-03-14T04:16:19;10.00;99.90
5723;DHT22;2886;49.722;8.612;2023-03-14T04:18:44;10.00;99.90
5723;DHT22;2886;49.722;8.612;2023-03-14T04:21:10;10.00;99.90
5723;DHT22;2886;49.722;8.612;2023-03-14T04:23:36;10.10;99.90
5723;DHT22;2886;49.722;8.612;2023-03-14T04:26:03;10.10;99.90
5723;DHT22;2886;49.722;8.612;2023-03-14T04:28:28;10.20;99.90
5723;DHT22;2886;49.722;8.612;2023-03-14T04:30:54;10.20;99.90
5723;DHT22;2886;49.722;8.612;2023-03-14T04:33:20;10.20;99.90
5723;DHT22;2886;49.722;8.612;2023-03-14T04:35:46;10.30;99.90
5723;DHT22;2886;49.722;8.612;2023-03-14T04:38:12;10.30;99.90
5723;DHT22;2886;49.722;8.612;2023-03-14T04:40:39;10.40;99.90
5723;DHT22;2886;49.722;8.612;2023-03-14T04:43:05;10.40;99.90
5723;DHT22;2886;49.722;8.612;2023-03-14T04:45:31;10.40;99.90
5723;DHT22;2886;49.722;8.612;2023-03-14T04:47:57;10.40;99.90
5723;DHT22;2886;49.722;8.612;2023-03-14T04:50:22;10.50;99.90
5723;DHT22;2886;49.722;8.612;2023-03-14T04:52:48;10.50;99.90
5723;DHT22;2886;49.722;8.612;2023-03-14T04:55:14;10.40;99.90
5723;DHT22;2886;49.722;8.612;2023-03-14T04:57:39;10.40;99.90
5723;DHT22;2886;49.722;8.612;2023-03-14T05:00:06;10.50;99.90
5723;DHT22;2886;49.722;8.612;2023-03-14T05:02:33;10.40;99.90
5723;DHT22;2886;49.722;8.612;2023-03-14T05:04:59;10.50;99.90
5723;DHT22;2886;49.722;8.612;2023-03-14T05:07:24;10.50;99.90
5723;DHT22;2886;49.722;8.612;2023-03-14T05:09:50;10.50;99.90
5723;DHT22;2886;49.722;8.612;2023-03-14T05:12:16;10.40;99.90
5723;DHT22;2886;49.722;8.612;2023-03-14T05:14:42;10.40;99.90
5723;DHT22;2886;49.722;8.612;2023-03-14T05:17:07;10.40;99.90
5723;DHT22;2886;49.722;8.612;2023-03-14T05:19:33;10.40;99.90
5723;DHT22;2886;49.722;8.612;2023-03-14T05:21:58;10.40;99.90
5723;DHT22;2886;49.722;8.612;2023-03-14T05:24:24;10.40;99.90
5723;DHT22;2886;49.722;8.612;2023-03-14T05:26:50;10.40;99.90
5723;DHT22;2886;49.722;8.612;2023-03-14T05:29:15;10.40;99.90
5723;DHT22;2886;49.722;8.612;2023-03-14T05:31:41;10.40;99.90
5723;DHT22;2886;49.722;8.612;2023-03-14T05:34:07;10.40;99.90
5723;DHT22;2886;49.722;8.612;2023-03-14T05:36:33;10.40;99.90
5723;DHT22;2886;49.722;8.612;2023-03-14T05:38:59;10.40;99.90
5723;DHT22;2886;49.722;8.612;2023-03-14T05:41:24;10.40;99.90
5723;DHT22;2886;49.722;8.612;2023-03-14T05:43:50;10.40;99.90
5723;DHT22;2886;49.722;8.612;2023-03-14T05:46:15;10.40;99.90
5723;DHT22;2886;49.722;8.612;2023-03-14T05:48:41;10.40;99.90
5723;DHT22;2886;49.722;8.612;2023-03-14T05:51:06;10.40;99.90
5723;DHT22;2886;49.722;8.612;2023-03-14T05:53:32;10.40;99.90
5723;DHT22;2886;49.722;8.612;2023-03-14T05:55:58;10.40;99.90
5723;DHT22;2886;49.722;8.612;2023-03-14T05:58:24;10.40;99.90
5723;DHT22;2886;49.722;8.612;2023-03-14T06:00:50;10.40;99.90
5723;DHT22;2886;49.722;8.612;2023-03-14T06:03:16;10.40;99.90
5723;DHT22;2886;49.722;8.612;2023-03-14T06:05:41;10.40;99.90
5723;DHT22;2886;49.722;8.612;2023-03-14T06:08:07;10.40;99.90
5723;DHT22;2886;49.722;8.612;2023-03-14T06:10:34;10.40;99.90
5723;DHT22;2886;49.722;8.612;2023-03-14T06:13:00;10.40;99.90
5723;DHT22;2886;49.722;8.612;2023-03-14T06:15:26;10.40;99.90
5723;DHT22;2886;49.722;8.612;2023-03-14T06:17:54;10.40;99.90
5723;DHT22;2886;49.722;8.612;2023-03-14T06:20:22;10.40;99.90
5723;DHT22;2886;49.722;8.612;2023-03-14T06:22:48;10.40;99.90
5723;DHT22;2886;49.722;8.612;2023-03-14T06:25:13;10.40;99.90
5723;DHT22;2886;49.722;8.612;2023-03-14T06:27:39;10.50;99.90
5723;DHT22;2886;49.722;8.612;2023-03-14T06:30:06;10.50;99.90
5723;DHT22;2886;49.722;8.612;2023-03-14T06:32:32;10.50;99.90
5723;DHT22;2886;49.722;8.612;2023-03-14T06:34:59;10.50;99.90
5723;DHT22;2886;49.722;8.612;2023-03-14T06:37:27;10.50;99.90
5723;DHT22;2886;49.722;8.612;2023-03-14T06:39:54;10.60;99.90
5723;DHT22;2886;49.722;8.612;2023-03-14T06:42:19;10.60;99.90
5723;DHT22;2886;49.722;8.612;2023-03-14T06:44:45;10.60;99.90
5723;DHT22;2886;49.722;8.612;2023-03-14T06:47:12;10.60;99.90
5723;DHT22;2886;49.722;8.612;2023-03-14T06:49:37;10.60;99.90
5723;DHT22;2886;49.722;8.612;2023-03-14T06:52:03;10.60;99.90
5723;DHT22;2886;49.722;8.612;2023-03-14T06:54:53;10.60;99.90
5723;DHT22;2886;49.722;8.612;2023-03-14T06:57:19;10.50;99.90
5723;DHT22;2886;49.722;8.612;2023-03-14T06:59:46;10.60;99.90
5723;DHT22;2886;49.722;8.612;2023-03-14T07:02:12;10.60;99.90
5723;DHT22;2886;49.722;8.612;2023-03-14T07:04:38;10.60;99.90
5723;DHT22;2886;49.722;8.612;2023-03-14T07:07:03;10.70;99.90
5723;DHT22;2886;49.722;8.612;2023-03-14T07:09:30;10.70;99.90
5723;DHT22;2886;49.722;8.612;2023-03-14T07:11:55;10.70;99.90
5723;DHT22;2886;49.722;8.612;2023-03-14T07:14:21;10.70;99.90
5723;DHT22;2886;49.722;8.612;2023-03-14T07:16:46;10.80;99.90
5723;DHT22;2886;49.722;8.612;2023-03-14T07:19:12;10.80;99.90
5723;DHT22;2886;49.722;8.612;2023-03-14T07:21:38;10.90;99.90
5723;DHT22;2886;49.722;8.612;2023-03-14T07:24:03;10.90;99.90
5723;DHT22;2886;49.722;8.612;2023-03-14T07:26:29;10.90;99.90
5723;DHT22;2886;49.722;8.612;2023-03-14T07:28:55;11.00;99.90
5723;DHT22;2886;49.722;8.612;2023-03-14T07:31:20;11.00;99.90
5723;DHT22;2886;49.722;8.612;2023-03-14T07:33:46;11.10;99.90
5723;DHT22;2886;49.722;8.612;2023-03-14T07:36:12;11.10;99.90
5723;DHT22;2886;49.722;8.612;2023-03-14T07:38:37;11.10;99.90
5723;DHT22;2886;49.722;8.612;2023-03-14T07:41:04;11.20;99.90
5723;DHT22;2886;49.722;8.612;2023-03-14T07:43:30;11.30;99.90
5723;DHT22;2886;49.722;8.612;2023-03-14T07:45:56;11.30;99.90
5723;DHT22;2886;49.722;8.612;2023-03-14T07:48:22;11.40;99.90
5723;DHT22;2886;49.722;8.612;2023-03-14T07:50:51;11.40;99.90
5723;DHT22;2886;49.722;8.612;2023-03-14T07:53:17;11.50;99.90
5723;DHT22;2886;49.722;8.612;2023-03-14T07:55:42;11.50;99.90
5723;DHT22;2886;49.722;8.612;2023-03-14T07:58:08;11.60;99.90
5723;DHT22;2886;49.722;8.612;2023-03-14T08:00:34;11.60;99.90
5723;DHT22;2886;49.722;8.612;2023-03-14T08:02:59;11.70;99.90
5723;DHT22;2886;49.722;8.612;2023-03-14T08:05:26;11.70;99.90
5723;DHT22;2886;49.722;8.612;2023-03-14T08:07:52;11.70;99.90
5723;DHT22;2886;49.722;8.612;2023-03-14T08:10:17;11.70;99.90
5723;DHT22;2886;49.722;8.612;2023-03-14T08:12:52;11.80;99.90
5723;DHT22;2886;49.722;8.612;2023-03-14T08:15:18;11.90;99.90
5723;DHT22;2886;49.722;8.612;2023-03-14T08:17:44;12.00;99.90
5723;DHT22;2886;49.722;8.612;2023-03-14T08:20:10;12.10;99.90
5723;DHT22;2886;49.722;8.612;2023-03-14T08:22:38;12.20;99.90
5723;DHT22;2886;49.722;8.612;2023-03-14T08:25:04;12.20;99.90
5723;DHT22;2886;49.722;8.612;2023-03-14T08:27:30;12.20;99.90
5723;DHT22;2886;49.722;8.612;2023-03-14T08:29:55;12.20;99.90
5723;DHT22;2886;49.722;8.612;2023-03-14T08:32:21;12.40;99.90
5723;DHT22;2886;49.722;8.612;2023-03-14T08:34:49;12.30;99.90
5723;DHT22;2886;49.722;8.612;2023-03-14T08:37:14;12.40;99.90
5723;DHT22;2886;49.722;8.612;2023-03-14T08:39:40;12.60;99.90
5723;DHT22;2886;49.722;8.612;2023-03-14T08:42:06;12.70;99.90
5723;DHT22;2886;49.722;8.612;2023-03-14T08:44:32;12.90;99.90
5723;DHT22;2886;49.722;8.612;2023-03-14T08:46:57;13.00;99.90
5723;DHT22;2886;49.722;8.612;2023-03-14T08:49:23;13.00;99.90
5723;DHT22;2886;49.722;8.612;2023-03-14T08:51:49;12.90;99.90
5723;DHT22;2886;49.722;8.612;2023-03-14T08:54:14;12.90;99.90
5723;DHT22;2886;49.722;8.612;2023-03-14T08:56:40;12.90;99.90
5723;DHT22;2886;49.722;8.612;2023-03-14T08:59:06;12.90;99.90
5723;DHT22;2886;49.722;8.612;2023-03-14T09:01:33;12.80;99.90
5723;DHT22;2886;49.722;8.612;2023-03-14T09:03:59;12.80;99.90
5723;DHT22;2886;49.722;8.612;2023-03-14T09:06:24;12.70;99.90
5723;DHT22;2886;49.722;8.612;2023-03-14T09:08:50;12.80;99.90
5723;DHT22;2886;49.722;8.612;2023-03-14T09:11:16;12.80;99.90
5723;DHT22;2886;49.722;8.612;2023-03-14T09:13:44;12.90;99.90
5723;DHT22;2886;49.722;8.612;2023-03-14T09:16:10;13.00;99.90
5723;DHT22;2886;49.722;8.612;2023-03-14T09:18:35;13.10;99.90
5723;DHT22;2886;49.722;8.612;2023-03-14T09:21:01;13.10;99.90
5723;DHT22;2886;49.722;8.612;2023-03-14T09:23:27;13.10;99.90
5723;DHT22;2886;49.722;8.612;2023-03-14T09:25:57;13.10;99.90
5723;DHT22;2886;49.722;8.612;2023-03-14T09:28:22;13.10;99.90
5723;DHT22;2886;49.722;8.612;2023-03-14T09:30:48;13.10;99.90
5723;DHT22;2886;49.722;8.612;2023-03-14T09:33:15;13.20;99.90
5723;DHT22;2886;49.722;8.612;2023-03-14T09:35:41;13.20;99.90
5723;DHT22;2886;49.722;8.612;2023-03-14T09:38:06;13.20;99.90
5723;DHT22;2886;49.722;8.612;2023-03-14T09:40:35;13.00;99.90
5723;DHT22;2886;49.722;8.612;2023-03-14T09:43:01;13.00;99.90
5723;DHT22;2886;49.722;8.612;2023-03-14T09:45:33;12.90;99.90
5723;DHT22;2886;49.722;8.612;2023-03-14T09:47:59;12.80;99.90
5723;DHT22;2886;49.722;8.612;2023-03-14T09:50:36;12.80;99.90
5723;DHT22;2886;49.722;8.612;2023-03-14T09:53:10;12.80;99.90
5723;DHT22;2886;49.722;8.612;2023-03-14T09:55:37;12.70;99.90
5723;DHT22;2886;49.722;8.612;2023-03-14T09:58:09;12.80;99.90
5723;DHT22;2886;49.722;8.612;2023-03-14T10:00:35;12.80;99.90
5723;DHT22;2886;49.722;8.612;2023-03-14T10:05:42;12.80;99.90
5723;DHT22;2886;49.722;8.612;2023-03-14T10:08:12;12.70;99.90
5723;DHT22;2886;49.722;8.612;2023-03-14T10:10:38;12.80;99.90
5723;DHT22;2886;49.722;8.612;2023-03-14T10:15:37;12.80;99.90
5723;DHT22;2886;49.722;8.612;2023-03-14T10:18:05;12.90;99.90
5723;DHT22;2886;49.722;8.612;2023-03-14T10:20:45;13.10;99.90
5723;DHT22;2886;49.722;8.612;2023-03-14T10:25:39;13.20;99.90
5723;DHT22;2886;49.722;8.612;2023-03-14T10:28:25;13.00;99.90
5723;DHT22;2886;49.722;8.612;2023-03-14T10:30:50;13.00;99.90
5723;DHT22;2886;49.722;8.612;2023-03-14T10:33:25;12.90;99.90
5723;DHT22;2886;49.722;8.612;2023-03-14T10:36:05;12.90;99.90
5723;DHT22;2886;49.722;8.612;2023-03-14T10:38:36;12.90;99.90
5723;DHT22;2886;49.722;8.612;2023-03-14T10:41:23;12.90;99.90
5723;DHT22;2886;49.722;8.612;2023-03-14T10:43:52;12.80;99.90
5723;DHT22;2886;49.722;8.612;2023-03-14T10:46:20;12.90;99.90
5723;DHT22;2886;49.722;8.612;2023-03-14T10:48:46;12.80;99.90
5723;DHT22;2886;49.722;8.612;2023-03-14T10:53:47;12.80;99.90
5723;DHT22;2886;49.722;8.612;2023-03-14T10:56:18;12.70;99.90
5723;DHT22;2886;49.722;8.612;2023-03-14T10:58:49;12.60;99.90
5723;DHT22;2886;49.722;8.612;2023-03-14T11:01:22;12.50;99.90
5723;DHT22;2886;49.722;8.612;2023-03-14T11:09:44;12.20;99.90
5723;DHT22;2886;49.722;8.612;2023-03-14T11:14:59;12.10;99.90
5723;DHT22;2886;49.722;8.612;2023-03-14T11:20:22;12.10;99.90
5723;DHT22;2886;49.722;8.612;2023-03-14T11:28:13;12.00;99.90
5723;DHT22;2886;49.722;8.612;2023-03-14T11:33:38;12.00;99.90
5723;DHT22;2886;49.722;8.612;2023-03-14T11:36:08;11.90;99.90
5723;DHT22;2886;49.722;8.612;2023-03-14T11:38:52;12.00;99.90
5723;DHT22;2886;49.722;8.612;2023-03-14T11:41:27;12.00;99.90
5723;DHT22;2886;49.722;8.612;2023-03-14T11:43:56;12.00;99.90
5723;DHT22;2886;49.722;8.612;2023-03-14T11:46:29;12.00;99.90
5723;DHT22;2886;49.722;8.612;2023-03-14T11:49:23;11.90;99.90
5723;DHT22;2886;49.722;8.612;2023-03-14T11:51:56;11.90;99.90
5723;DHT22;2886;49.722;8.612;2023-03-14T11:57:22;11.80;99.90
5723;DHT22;2886;49.722;8.612;2023-03-14T12:00:21;11.80;99.90
5723;DHT22;2886;49.722;8.612;2023-03-14T12:02:52;11.80;99.90
5723;DHT22;2886;49.722;8.612;2023-03-14T12:10:40;11.80;99.90
5723;DHT22;2886;49.722;8.612;2023-03-14T12:13:10;11.80;99.90
5723;DHT22;2886;49.722;8.612;2023-03-14T12:15:40;11.80;99.90
5723;DHT22;2886;49.722;8.612;2023-03-14T12:18:20;11.70;99.90
5723;DHT22;2886;49.722;8.612;2023-03-14T12:21:01;11.60;99.90
5723;DHT22;2886;49.722;8.612;2023-03-14T12:23:50;11.50;99.90
5723;DHT22;2886;49.722;8.612;2023-03-14T12:29:16;11.30;99.90
5723;DHT22;2886;49.722;8.612;2023-03-14T12:31:46;11.10;99.90
5723;DHT22;2886;49.722;8.612;2023-03-14T12:42:17;11.10;99.90
5723;DHT22;2886;49.722;8.612;2023-03-14T12:44:50;11.00;99.90
5723;DHT22;2886;49.722;8.612;2023-03-14T12:49:46;11.20;99.90
5723;DHT22;2886;49.722;8.612;2023-03-14T12:52:19;11.20;99.90
5723;DHT22;2886;49.722;8.612;2023-03-14T12:54:56;11.30;99.90
5723;DHT22;2886;49.722;8.612;2023-03-14T12:57:33;11.60;99.00
5723;DHT22;2886;49.722;8.612;2023-03-14T13:00:26;11.80;99.10
5723;DHT22;2886;49.722;8.612;2023-03-14T13:02:48;12.00;98.60
5723;DHT22;2886;49.722;8.612;2023-03-14T13:05:25;12.00;97.50
5723;DHT22;2886;49.722;8.612;2023-03-14T13:10:26;11.80;97.30
5723;DHT22;2886;49.722;8.612;2023-03-14T13:15:41;11.50;97.20
5723;DHT22;2886;49.722;8.612;2023-03-14T13:18:16;11.50;97.70
5723;DHT22;2886;49.722;8.612;2023-03-14T13:20:50;11.30;99.50
5723;DHT22;2886;49.722;8.612;2023-03-14T13:23:25;11.20;99.10
5723;DHT22;2886;49.722;8.612;2023-03-14T13:25:51;11.30;98.50
5723;DHT22;2886;49.722;8.612;2023-03-14T13:28:17;11.30;97.60
5723;DHT22;2886;49.722;8.612;2023-03-14T13:30:45;11.50;96.50
5723;DHT22;2886;49.722;8.612;2023-03-14T13:33:14;11.50;94.90
5723;DHT22;2886;49.722;8.612;2023-03-14T13:35:46;11.50;95.60
5723;DHT22;2886;49.722;8.612;2023-03-14T13:38:21;11.50;95.10
5723;DHT22;2886;49.722;8.612;2023-03-14T13:40:49;11.40;94.90
5723;DHT22;2886;49.722;8.612;2023-03-14T13:43:21;11.30;96.00
5723;DHT22;2886;49.722;8.612;2023-03-14T13:48:17;11.00;97.30
5723;DHT22;2886;49.722;8.612;2023-03-14T13:50:51;11.10;97.40
5723;DHT22;2886;49.722;8.612;2023-03-14T13:53:17;11.10;97.20
5723;DHT22;2886;49.722;8.612;2023-03-14T13:55:43;10.90;95.70
5723;DHT22;2886;49.722;8.612;2023-03-14T13:58:19;10.70;96.70
5723;DHT22;2886;49.722;8.612;2023-03-14T14:01:14;10.60;96.70
5723;DHT22;2886;49.722;8.612;2023-03-14T14:03:42;10.70;97.00
5723;DHT22;2886;49.722;8.612;2023-03-14T14:06:17;10.70;96.50
5723;DHT22;2886;49.722;8.612;2023-03-14T14:08:45;10.90;96.70
5723;DHT22;2886;49.722;8.612;2023-03-14T14:13:55;11.10;95.40
5723;DHT22;2886;49.722;8.612;2023-03-14T14:16:24;10.80;95.30
5723;DHT22;2886;49.722;8.612;2023-03-14T14:18:55;10.70;95.90
5723;DHT22;2886;49.722;8.612;2023-03-14T14:21:21;10.70;96.70
5723;DHT22;2886;49.722;8.612;2023-03-14T14:23:48;10.90;97.20
5723;DHT22;2886;49.722;8.612;2023-03-14T14:26:18;11.10;96.60
5723;DHT22;2886;49.722;8.612;2023-03-14T14:28:44;11.20;96.30
5723;DHT22;2886;49.722;8.612;2023-03-14T14:34:02;11.20;95.80
5723;DHT22;2886;49.722;8.612;2023-03-14T14:36:42;11.30;93.20
5723;DHT22;2886;49.722;8.612;2023-03-14T14:39:19;10.90;91.10
5723;DHT22;2886;49.722;8.612;2023-03-14T14:41:48;10.60;90.40
5723;DHT22;2886;49.722;8.612;2023-03-14T14:44:18;10.60;91.20
5723;DHT22;2886;49.722;8.612;2023-03-14T14:46:46;10.90;91.10
5723;DHT22;2886;49.722;8.612;2023-03-14T14:49:19;11.10;87.70
5723;DHT22;2886;49.722;8.612;2023-03-14T14:51:49;11.20;86.70
5723;DHT22;2886;49.722;8.612;2023-03-14T14:54:21;11.00;83.30
5723;DHT22;2886;49.722;8.612;2023-03-14T14:57:03;10.90;86.10
5723;DHT22;2886;49.722;8.612;2023-03-14T14:59:29;10.80;86.00
5723;DHT22;2886;49.722;8.612;2023-03-14T15:01:59;10.60;83.00
5723;DHT22;2886;49.722;8.612;2023-03-14T15:04:26;10.40;81.00
5723;DHT22;2886;49.722;8.612;2023-03-14T15:06:52;10.40;81.30
5723;DHT22;2886;49.722;8.612;2023-03-14T15:09:19;10.30;78.80
5723;DHT22;2886;49.722;8.612;2023-03-14T15:11:45;10.40;80.80
5723;DHT22;2886;49.722;8.612;2023-03-14T15:14:11;10.40;78.90
5723;DHT22;2886;49.722;8.612;2023-03-14T15:16:38;10.40;78.70
5723;DHT22;2886;49.722;8.612;2023-03-14T15:19:19;10.30;77.70
5723;DHT22;2886;49.722;8.612;2023-03-14T15:21:45;10.40;76.40
5723;DHT22;2886;49.722;8.612;2023-03-14T15:24:11;10.40;78.20
5723;DHT22;2886;49.722;8.612;2023-03-14T15:26:36;10.40;76.60
5723;DHT22;2886;49.722;8.612;2023-03-14T15:29:03;10.40;75.90
5723;DHT22;2886;49.722;8.612;2023-03-14T15:31:28;10.40;68.80
5723;DHT22;2886;49.722;8.612;2023-03-14T15:33:54;10.30;69.30
5723;DHT22;2886;49.722;8.612;2023-03-14T15:36:24;10.30;69.60
5723;DHT22;2886;49.722;8.612;2023-03-14T15:38:51;10.40;68.40
5723;DHT22;2886;49.722;8.612;2023-03-14T15:41:18;10.40;68.00
5723;DHT22;2886;49.722;8.612;2023-03-14T15:43:44;10.40;68.00
5723;DHT22;2886;49.722;8.612;2023-03-14T15:46:10;10.50;67.20
5723;DHT22;2886;49.722;8.612;2023-03-14T15:48:36;10.60;67.70
5723;DHT22;2886;49.722;8.612;2023-03-14T15:51:02;10.70;63.70
5723;DHT22;2886;49.722;8.612;2023-03-14T15:53:27;10.90;63.50
5723;DHT22;2886;49.722;8.612;2023-03-14T15:55:53;11.10;61.60
5723;DHT22;2886;49.722;8.612;2023-03-14T15:58:20;11.10;62.50
5723;DHT22;2886;49.722;8.612;2023-03-14T16:00:46;11.20;61.60
5723;DHT22;2886;49.722;8.612;2023-03-14T16:03:12;11.20;61.80
5723;DHT22;2886;49.722;8.612;2023-03-14T16:05:41;11.00;63.70
5723;DHT22;2886;49.722;8.612;2023-03-14T16:08:07;10.90;64.50
5723;DHT22;2886;49.722;8.612;2023-03-14T16:10:32;10.80;65.70
5723;DHT22;2886;49.722;8.612;2023-03-14T16:12:58;10.60;65.00
5723;DHT22;2886;49.722;8.612;2023-03-14T16:15:24;10.60;64.70
5723;DHT22;2886;49.722;8.612;2023-03-14T16:17:55;10.50;64.70
5723;DHT22;2886;49.722;8.612;2023-03-14T16:20:21;10.40;64.60
5723;DHT22;2886;49.722;8.612;2023-03-14T16:22:47;10.30;64.50
5723;DHT22;2886;49.722;8.612;2023-03-14T16:25:13;10.30;65.80
5723;DHT22;2886;49.722;8.612;2023-03-14T16:27:38;10.30;66.50
5723;DHT22;2886;49.722;8.612;2023-03-14T16:30:05;10.30;66.30
5723;DHT22;2886;49.722;8.612;2023-03-14T16:32:31;10.20;66.30
5723;DHT22;2886;49.722;8.612;2023-03-14T16:34:56;10.00;65.50
5723;DHT22;2886;49.722;8.612;2023-03-14T16:37:25;10.00;67.10
5723;DHT22;2886;49.722;8.612;2023-03-14T16:39:52;10.00;68.60
5723;DHT22;2886;49.722;8.612;2023-03-14T16:42:18;10.00;68.60
5723;DHT22;2886;49.722;8.612;2023-03-14T16:44:45;9.90;67.60
5723;DHT22;2886;49.722;8.612;2023-03-14T16:47:11;9.90;68.00
5723;DHT22;2886;49.722;8.612;2023-03-14T16:49:36;9.90;68.20
5723;DHT22;2886;49.722;8.612;2023-03-14T16:52:03;9.80;68.10
5723;DHT22;2886;49.722;8.612;2023-03-14T16:54:28;9.80;68.50
5723;DHT22;2886;49.722;8.612;2023-03-14T16:56:54;9.70;69.30
5723;DHT22;2886;49.722;8.612;2023-03-14T16:59:19;9.70;68.90
5723;DHT22;2886;49.722;8.612;2023-03-14T17:01:45;9.60;69.10
5723;DHT22;2886;49.722;8.612;2023-03-14T17:04:11;9.50;68.90
5723;DHT22;2886;49.722;8.612;2023-03-14T17:06:37;9.50;70.60
5723;DHT22;2886;49.722;8.612;2023-03-14T17:09:04;9.40;70.80
5723;DHT22;2886;49.722;8.612;2023-03-14T17:11:30;9.30;70.70
5723;DHT22;2886;49.722;8.612;2023-03-14T17:13:58;9.20;71.90
5723;DHT22;2886;49.722;8.612;2023-03-14T17:16:23;9.20;72.70
5723;DHT22;2886;49.722;8.612;2023-03-14T17:18:49;9.20;73.70
5723;DHT22;2886;49.722;8.612;2023-03-14T17:21:15;9.10;74.40
5723;DHT22;2886;49.722;8.612;2023-03-14T17:23:41;9.20;76.00
5723;DHT22;2886;49.722;8.612;2023-03-14T17:26:07;9.00;77.80